Terminal Aerodrome Forecast (TAF)

TAF

Data at: 1315 UTC 23 Aug 2019

TAF for:NVSC (Sola/Vanua Lava Arpt, --, NV) issued at 1000 UTC 23 Aug 2019
Text:TAF NVSC 231000Z 2312/2412 13005KT 9999 SCT020 BKN040
Forecast period:1200 UTC 23 August 2019 to 1200 UTC 24 August 2019
Forecast type:FROM: standard forecast or significant change
Winds:from the SE (130 degrees) at 6 MPH (5 knots; 2.6 m/s)
Visibility:6 or more sm (10+ km)
Ceiling:4000 feet AGL
Clouds: scattered clouds at 2000 feet AGL, broken clouds at 4000 feet AGL
Text:INTER 2312/2318 9000 -SHRA BKN018 OVC035
Forecast period:1200 to 1800 UTC 23 August 2019
Forecast type:TEMPORARY: The following changes expected for less than half the time period
Visibility: 6 sm ( 9 km)
Ceiling:1800 feet AGL
Clouds: broken clouds at 1800 feet AGL, overcast cloud deck at 3500 feet AGL
Weather:-SHRA (light rain showers)

TAF

Data at: 1315 UTC 23 Aug 2019

TAF for:NVSG (Longana Arpt, --, NV) issued at 1000 UTC 23 Aug 2019
Text:TAF NVSG 231000Z 2312/2412 13006KT 9999 SCT020 BKN040
Forecast period:1200 UTC 23 August 2019 to 1200 UTC 24 August 2019
Forecast type:FROM: standard forecast or significant change
Winds:from the SE (130 degrees) at 7 MPH (6 knots; 3.1 m/s)
Visibility:6 or more sm (10+ km)
Ceiling:4000 feet AGL
Clouds: scattered clouds at 2000 feet AGL, broken clouds at 4000 feet AGL
Text:INTER 2312/2318 9000 -SHRA BKN016
Forecast period:1200 to 1800 UTC 23 August 2019
Forecast type:TEMPORARY: The following changes expected for less than half the time period
Visibility: 6 sm ( 9 km)
Ceiling:1600 feet AGL
Clouds: broken clouds at 1600 feet AGL
Weather:-SHRA (light rain showers)

TAF

Data at: 1315 UTC 23 Aug 2019

TAF for:NVSS (Santo/Pekoa Intl, --, NV) issued at 1000 UTC 23 Aug 2019
Text:TAF NVSS 231000Z 2312/2412 13005KT 9999 SCT020 BKN040
Forecast period:1200 UTC 23 August 2019 to 1200 UTC 24 August 2019
Forecast type:FROM: standard forecast or significant change
Winds:from the SE (130 degrees) at 6 MPH (5 knots; 2.6 m/s)
Visibility:6 or more sm (10+ km)
Ceiling:4000 feet AGL
Clouds: scattered clouds at 2000 feet AGL, broken clouds at 4000 feet AGL
Text:PROB30
Forecast period:1200 to 1800 UTC 23 August 2019
Forecast type:TEMPORARY: The following changes expected for less than half the time period
Visibility: 6 sm ( 9 km)
Ceiling:1800 feet AGL
Clouds: few clouds at 1200 feet AGL, broken clouds at 1800 feet AGL
Weather:-SHRA (light rain showers)

TAF

Data at: 1315 UTC 23 Aug 2019

TAF for:NVSL (Malekula/Lamap, --, NV) issued at 1000 UTC 23 Aug 2019
Text:TAF NVSL 231000Z 2312/2412 12010KT 9999 SCT020 BKN040
Forecast period:1200 UTC 23 August 2019 to 1200 UTC 24 August 2019
Forecast type:FROM: standard forecast or significant change
Winds:from the ESE (120 degrees) at 12 MPH (10 knots; 5.1 m/s)
Visibility:6 or more sm (10+ km)
Ceiling:4000 feet AGL
Clouds: scattered clouds at 2000 feet AGL, broken clouds at 4000 feet AGL
Text:PROB30
Forecast period:1200 to 1800 UTC 23 August 2019
Forecast type:TEMPORARY: The following changes expected for less than half the time period
Visibility: 6 sm ( 9 km)
Ceiling:1800 feet AGL
Clouds: broken clouds at 1800 feet AGL
Weather:-SHRA (light rain showers)

TAF

Data at: 1315 UTC 23 Aug 2019

TAF for:NVSP (Norsup Arpt, --, NV) issued at 1000 UTC 23 Aug 2019
Text:TAF NVSP 231000Z 2312/2412 12010KT 9999 SCT020 BKN040
Forecast period:1200 UTC 23 August 2019 to 1200 UTC 24 August 2019
Forecast type:FROM: standard forecast or significant change
Winds:from the ESE (120 degrees) at 12 MPH (10 knots; 5.1 m/s)
Visibility:6 or more sm (10+ km)
Ceiling:4000 feet AGL
Clouds: scattered clouds at 2000 feet AGL, broken clouds at 4000 feet AGL
Text:PROB30
Forecast period:1200 to 1800 UTC 23 August 2019
Forecast type:TEMPORARY: The following changes expected for less than half the time period
Visibility: 6 sm ( 9 km)
Ceiling:1800 feet AGL
Clouds: broken clouds at 1800 feet AGL
Weather:-SHRA (light rain showers)

TAF

Data at: 1315 UTC 23 Aug 2019

TAF for:NVVV (Efate/Bauerfield Int, --, NV) issued at 1000 UTC 23 Aug 2019
Text:TAF NVVV 231000Z 2312/2412 17008KT 9999 SCT020 BKN040
Forecast period:1200 UTC 23 August 2019 to 1200 UTC 24 August 2019
Forecast type:FROM: standard forecast or significant change
Winds:from the S (170 degrees) at 9 MPH (8 knots; 4.1 m/s)
Visibility:6 or more sm (10+ km)
Ceiling:4000 feet AGL
Clouds: scattered clouds at 2000 feet AGL, broken clouds at 4000 feet AGL
Text:PROB30
Forecast period:1200 to 1800 UTC 23 August 2019
Forecast type:TEMPORARY: The following changes expected for less than half the time period
Visibility: 6 sm ( 9 km)
Ceiling:1800 feet AGL
Clouds: broken clouds at 1800 feet AGL
Weather:-SHRA (light rain showers)

TAF

Data at: 1315 UTC 23 Aug 2019

TAF for:NVVW (Tanna Arpt, --, NV) issued at 1000 UTC 23 Aug 2019
Text:TAF NVVW 231000Z 2312/2412 16011KT 9999 FEW020
Forecast period:1200 UTC 23 August 2019 to 1200 UTC 24 August 2019
Forecast type:FROM: standard forecast or significant change
Winds:from the SSE (160 degrees) at 13 MPH (11 knots; 5.7 m/s)
Visibility:6 or more sm (10+ km)
Ceiling:at least 12,000 feet AGL
Clouds: few clouds at 2000 feet AGL

TAF

Data at: 1315 UTC 23 Aug 2019

TAF for:NVVA (Aneityum/Mystery Isl, --, NV) issued at 1000 UTC 23 Aug 2019
Text:TAF NVVA 231000Z 2312/2412 13005KT 9999 FEW020
Forecast period:1200 UTC 23 August 2019 to 1200 UTC 24 August 2019
Forecast type:FROM: standard forecast or significant change
Winds:from the SE (130 degrees) at 6 MPH (5 knots; 2.6 m/s)
Visibility:6 or more sm (10+ km)
Ceiling:at least 12,000 feet AGL
Clouds: few clouds at 2000 feet AGL

TAF

Data at: 1315 UTC 23 Aug 2019

TAF NVVV 231000Z 2312/2412 17008KT 9999 SCT020 BKN040
  PROB30
  INTER 2312/2318 9000 -SHRA BKN018
TAF NVSC 231000Z 2312/2412 13005KT 9999 SCT020 BKN040
  INTER 2312/2318 9000 -SHRA BKN018 OVC035
TAF NVSG 231000Z 2312/2412 13006KT 9999 SCT020 BKN040
  INTER 2312/2318 9000 -SHRA BKN016
TAF NVSS 231000Z 2312/2412 13005KT 9999 SCT020 BKN040
  PROB30
  INTER 2312/2318 9000 -SHRA FEW012 BKN018
TAF NVSL 231000Z 2312/2412 12010KT 9999 SCT020 BKN040
  PROB30
  INTER 2312/2318 9000 -SHRA BKN018
TAF NVSP 231000Z 2312/2412 12010KT 9999 SCT020 BKN040
  PROB30
  INTER 2312/2318 9000 -SHRA BKN018
TAF NVVW 231000Z 2312/2412 16011KT 9999 FEW020
TAF NVVA 231000Z 2312/2412 13005KT 9999 FEW020